Aviation Digital Data Service (ADDS)

Output produced by METARs form (2109 UTC 28 July 2016)
found at http://aviationweather.gov/adds/metars/
 
KPIT 282100Z 2821/2924 17005KT P6SM VCSH SCT010 OVC050 
     TEMPO 2821/2823 -SHRA 
     FM290300 VRB03KT 5SM BR BKN035 
     FM290900 00000KT 4SM BR OVC015 
     FM291100 32003KT 3SM BR OVC008 
     FM291330 33004KT P6SM BKN035